Time;durP1;ratioP1;P1;durP2;ratioP2;P2;SDS_P1;SDS_P2;PMS_P1;PMS_P2;Temp;Humidity;BMP_temperature;BMP_pressure;BME280_temperature;BME280_humidity;BME280_pressure;Samples;Min_cycle;Max_cycle;Signal;HPM_P1;HPM_P2
2023/04/24 00:00:14;;;;;;;0.65;0.20;;;11.10;99.90;;;;;;5093302;28;20044;-77
2023/04/24 00:02:47;;;;;;;0.22;0.20;;;11.10;99.90;;;;;;5077160;28;20039;-77
2023/04/24 00:05:14;;;;;;;6.30;0.40;;;11.20;99.90;;;;;;5119788;27;20051;-77
2023/04/24 00:07:41;;;;;;;0.50;0.40;;;11.20;99.90;;;;;;5093961;28;20528;-77
2023/04/24 00:10:08;;;;;;;0.43;0.30;;;11.20;99.90;;;;;;5093419;28;20032;-77
2023/04/24 00:12:33;;;;;;;0.28;0.25;;;11.10;99.90;;;;;;5119411;27;20054;-78
2023/04/24 00:14:59;;;;;;;0.50;0.30;;;11.10;99.90;;;;;;5094954;28;20044;-78
2023/04/24 00:17:25;;;;;;;0.47;0.30;;;11.10;99.90;;;;;;5103308;27;20043;-77
2023/04/24 00:19:51;;;;;;;0.50;0.30;;;11.10;99.90;;;;;;5098267;28;20060;-77
2023/04/24 00:22:17;;;;;;;0.70;0.35;;;11.10;99.90;;;;;;5096593;28;20092;-77
2023/04/24 00:24:43;;;;;;;0.45;0.30;;;11.00;99.90;;;;;;5076709;28;20067;-77
2023/04/24 00:27:09;;;;;;;0.80;0.40;;;11.10;99.90;;;;;;5091931;28;20090;-77
2023/04/24 00:29:34;;;;;;;0.90;0.40;;;11.10;99.90;;;;;;5123576;27;20040;-77
2023/04/24 00:32:00;;;;;;;0.60;0.45;;;11.10;99.90;;;;;;5120982;27;20031;-78
2023/04/24 00:34:26;;;;;;;0.55;0.30;;;11.10;99.90;;;;;;5121244;27;20032;-78
2023/04/24 00:36:52;;;;;;;0.47;0.40;;;11.00;99.90;;;;;;5094348;28;20047;-77
2023/04/24 00:39:21;;;;;;;0.95;0.50;;;11.00;99.90;;;;;;5101158;28;20447;-78
2023/04/24 00:41:47;;;;;;;0.50;0.40;;;11.00;99.90;;;;;;5092827;28;20516;-78
2023/04/24 00:44:14;;;;;;;0.98;0.50;;;11.00;99.90;;;;;;5099968;28;20505;-78
2023/04/24 00:46:40;;;;;;;0.80;0.60;;;11.00;99.90;;;;;;5095340;28;20027;-77
2023/04/24 00:49:06;;;;;;;0.85;0.55;;;11.00;99.90;;;;;;5098342;28;20047;-77
2023/04/24 00:51:32;;;;;;;0.77;0.50;;;11.00;99.90;;;;;;5095248;28;20905;-77
2023/04/24 00:53:58;;;;;;;1.13;0.60;;;11.00;99.90;;;;;;5095360;28;20036;-77
2023/04/24 00:56:24;;;;;;;1.20;0.70;;;10.90;99.90;;;;;;5090923;28;20031;-77
2023/04/24 00:58:50;;;;;;;0.60;0.40;;;10.90;99.90;;;;;;5097152;28;20063;-77
2023/04/24 01:01:20;;;;;;;1.33;0.77;;;10.90;99.90;;;;;;5092969;28;20501;-77
2023/04/24 01:03:46;;;;;;;1.17;0.57;;;10.90;99.90;;;;;;5100385;28;20118;-77
2023/04/24 01:06:12;;;;;;;1.02;0.60;;;10.90;99.90;;;;;;5085971;27;20489;-77
2023/04/24 01:08:39;;;;;;;1.27;0.60;;;10.90;99.90;;;;;;5099433;27;20512;-77
2023/04/24 01:11:05;;;;;;;1.25;0.70;;;10.90;99.90;;;;;;5100425;27;20046;-78
2023/04/24 01:13:32;;;;;;;1.48;0.75;;;10.80;99.90;;;;;;5099306;28;20039;-78
2023/04/24 01:15:58;;;;;;;1.35;0.75;;;10.80;99.90;;;;;;5104977;28;20046;-78
2023/04/24 01:18:24;;;;;;;1.42;0.75;;;10.80;99.90;;;;;;5098553;27;20089;-78
2023/04/24 01:20:52;;;;;;;1.85;0.80;;;10.80;99.90;;;;;;5109122;27;20440;-78
2023/04/24 01:23:18;;;;;;;1.45;0.80;;;10.70;99.90;;;;;;5081581;27;20091;-78
2023/04/24 01:25:44;;;;;;;1.80;0.90;;;10.70;99.90;;;;;;5103029;27;20121;-78
2023/04/24 01:28:10;;;;;;;1.58;0.80;;;10.70;99.90;;;;;;5107327;27;20028;-77
2023/04/24 01:30:36;;;;;;;1.30;0.80;;;10.60;99.90;;;;;;5127010;27;20036;-78
2023/04/24 01:33:02;;;;;;;1.48;0.80;;;10.70;99.90;;;;;;5129797;27;20047;-78
2023/04/24 01:35:28;;;;;;;1.73;1.08;;;10.60;99.90;;;;;;5103389;27;20047;-78
2023/04/24 01:37:54;;;;;;;2.40;1.10;;;10.60;99.90;;;;;;5127686;27;20101;-78
2023/04/24 01:40:19;;;;;;;2.83;1.20;;;10.60;99.90;;;;;;5098517;27;20111;-78
2023/04/24 01:42:45;;;;;;;2.72;1.30;;;10.60;99.90;;;;;;5127574;27;20043;-78
2023/04/24 01:45:12;;;;;;;2.00;0.90;;;10.70;99.90;;;;;;5104888;28;20028;-78
2023/04/24 01:47:38;;;;;;;3.08;1.20;;;10.60;99.90;;;;;;5108490;27;20066;-78
2023/04/24 01:50:04;;;;;;;3.22;1.50;;;10.60;99.90;;;;;;5131049;27;20104;-78
2023/04/24 01:52:32;;;;;;;2.10;1.30;;;10.60;99.90;;;;;;5086072;28;20032;-78
2023/04/24 01:55:00;;;;;;;3.25;1.48;;;10.60;99.90;;;;;;5098578;27;20663;-77
2023/04/24 01:57:26;;;;;;;2.58;1.10;;;10.60;99.90;;;;;;5077127;28;20039;-78
2023/04/24 01:59:51;;;;;;;2.85;1.25;;;10.60;99.90;;;;;;5110751;27;20059;-78
2023/04/24 02:02:17;;;;;;;2.75;1.60;;;10.60;99.90;;;;;;5099190;27;20063;-78
2023/04/24 02:04:43;;;;;;;2.38;1.35;;;10.60;99.90;;;;;;5097704;28;20109;-78
2023/04/24 02:07:08;;;;;;;2.35;1.23;;;10.50;99.90;;;;;;5095665;28;20028;-78
2023/04/24 02:09:34;;;;;;;3.35;1.63;;;10.50;99.90;;;;;;5109024;27;20127;-78
2023/04/24 02:12:00;;;;;;;2.35;1.35;;;10.50;99.90;;;;;;5073268;28;20039;-77
2023/04/24 02:14:26;;;;;;;2.55;1.70;;;10.50;99.90;;;;;;5082516;28;20122;-78
2023/04/24 02:16:53;;;;;;;2.83;1.40;;;10.50;99.90;;;;;;5098077;27;20042;-77
2023/04/24 02:19:18;;;;;;;2.35;1.60;;;10.50;99.90;;;;;;5102565;28;20051;-77
2023/04/24 02:21:44;;;;;;;3.00;1.77;;;10.50;99.90;;;;;;5094024;28;20043;-78
2023/04/24 02:24:10;;;;;;;2.83;1.52;;;10.40;99.90;;;;;;5097197;28;20458;-77
2023/04/24 02:26:35;;;;;;;2.67;1.48;;;10.40;99.90;;;;;;5097345;28;20028;-77
2023/04/24 02:29:01;;;;;;;2.33;1.63;;;10.40;99.90;;;;;;5132117;27;20068;-78
2023/04/24 02:31:27;;;;;;;2.55;1.40;;;10.30;99.90;;;;;;5099232;28;20051;-77
2023/04/24 02:33:52;;;;;;;2.13;1.30;;;10.30;99.90;;;;;;5092948;27;20039;-78
2023/04/24 02:36:18;;;;;;;3.13;1.67;;;10.30;99.90;;;;;;5095402;27;20801;-77
2023/04/24 02:38:44;;;;;;;2.65;1.30;;;10.30;99.90;;;;;;5109768;27;20036;-77
2023/04/24 02:41:09;;;;;;;2.90;1.48;;;10.20;99.90;;;;;;5108924;27;20417;-77
2023/04/24 02:43:35;;;;;;;2.78;1.85;;;10.20;99.90;;;;;;5081697;28;20039;-78
2023/04/24 02:46:00;;;;;;;2.15;1.25;;;10.20;99.90;;;;;;5092380;27;20040;-78
2023/04/24 02:48:26;;;;;;;2.85;1.55;;;10.20;99.90;;;;;;5079928;28;20040;-77
2023/04/24 02:50:52;;;;;;;3.55;1.67;;;10.20;99.90;;;;;;5080829;28;20027;-78
2023/04/24 02:53:17;;;;;;;2.45;1.40;;;10.20;99.90;;;;;;5113509;27;20032;-78
2023/04/24 02:55:43;;;;;;;2.25;1.55;;;10.20;99.90;;;;;;5097659;28;20028;-78
2023/04/24 02:58:10;;;;;;;2.20;1.25;;;10.20;99.90;;;;;;5091301;27;20081;-78
2023/04/24 03:00:35;;;;;;;2.78;1.33;;;10.20;99.90;;;;;;5124936;27;20048;-77
2023/04/24 03:03:01;;;;;;;2.70;1.52;;;10.20;99.90;;;;;;5095042;27;20109;-78
2023/04/24 03:05:27;;;;;;;1.88;1.20;;;10.10;99.90;;;;;;5082402;28;20028;-77
2023/04/24 03:07:52;;;;;;;1.90;1.10;;;10.20;99.90;;;;;;5108962;27;20036;-78
2023/04/24 03:10:18;;;;;;;2.65;1.40;;;10.20;99.90;;;;;;5091608;28;20043;-78
2023/04/24 03:12:44;;;;;;;2.25;1.35;;;10.20;99.90;;;;;;5077308;28;20118;-77
2023/04/24 03:15:09;;;;;;;2.50;1.58;;;10.10;99.90;;;;;;5095893;28;20515;-77
2023/04/24 03:17:36;;;;;;;2.03;1.30;;;10.10;99.90;;;;;;5076098;27;20070;-77
2023/04/24 03:20:02;;;;;;;3.55;1.67;;;10.20;99.90;;;;;;5081775;28;20047;-77
2023/04/24 03:22:28;;;;;;;2.20;1.38;;;10.10;99.90;;;;;;5077950;28;20032;-77
2023/04/24 03:24:54;;;;;;;2.85;1.42;;;10.10;99.90;;;;;;5094729;28;20419;-77
2023/04/24 03:27:20;;;;;;;3.33;1.90;;;10.10;99.90;;;;;;5097078;28;20082;-77
2023/04/24 03:29:45;;;;;;;2.58;1.67;;;10.10;99.90;;;;;;5112134;27;20032;-77
2023/04/24 03:32:11;;;;;;;2.33;1.33;;;10.10;99.90;;;;;;5077742;28;20044;-77
2023/04/24 03:34:36;;;;;;;3.92;2.10;;;10.10;99.90;;;;;;5078601;28;20038;-77
2023/04/24 03:37:02;;;;;;;3.00;1.73;;;10.10;99.90;;;;;;5107366;27;20043;-77
2023/04/24 03:39:28;;;;;;;2.80;1.58;;;10.10;99.90;;;;;;5094274;28;20121;-77
2023/04/24 03:41:54;;;;;;;3.30;1.67;;;10.10;99.90;;;;;;5102233;28;20039;-77
2023/04/24 03:44:20;;;;;;;3.65;2.05;;;10.10;99.90;;;;;;5097499;27;20110;-77
2023/04/24 03:46:45;;;;;;;4.38;1.92;;;10.00;99.90;;;;;;5079591;27;20085;-77
2023/04/24 03:49:11;;;;;;;2.83;1.50;;;10.00;99.90;;;;;;5098322;27;20111;-77
2023/04/24 03:51:36;;;;;;;3.22;1.60;;;10.00;99.90;;;;;;5102516;28;20047;-77
2023/04/24 03:54:03;;;;;;;3.50;1.70;;;10.00;99.90;;;;;;5073344;28;20040;-77
2023/04/24 03:56:28;;;;;;;3.72;1.70;;;10.00;99.90;;;;;;5074827;28;20042;-77
2023/04/24 03:58:54;;;;;;;3.08;1.83;;;10.00;99.90;;;;;;5081770;28;20075;-77
2023/04/24 04:01:20;;;;;;;3.17;1.70;;;10.00;99.90;;;;;;5108216;27;20595;-77
2023/04/24 04:03:46;;;;;;;2.75;1.67;;;10.00;99.90;;;;;;5093236;28;20479;-77
2023/04/24 04:06:12;;;;;;;3.67;1.75;;;10.00;99.90;;;;;;5092195;28;20606;-77
2023/04/24 04:08:38;;;;;;;2.85;1.63;;;10.00;99.90;;;;;;5080567;28;20392;-77
2023/04/24 04:11:04;;;;;;;2.85;1.40;;;10.00;99.90;;;;;;5108910;27;20032;-77
2023/04/24 04:13:29;;;;;;;2.28;1.35;;;10.00;99.90;;;;;;5079171;28;20388;-77
2023/04/24 04:15:55;;;;;;;2.30;1.30;;;10.00;99.90;;;;;;5082240;28;20039;-77
2023/04/24 04:18:20;;;;;;;2.10;1.23;;;10.00;99.90;;;;;;5083087;28;20139;-77
2023/04/24 04:20:46;;;;;;;2.00;1.20;;;10.00;99.90;;;;;;5126801;27;20048;-77
2023/04/24 04:23:12;;;;;;;1.80;0.90;;;10.00;99.90;;;;;;5099029;28;20066;-77
2023/04/24 04:25:37;;;;;;;1.90;0.90;;;10.00;99.90;;;;;;5098913;28;20039;-77
2023/04/24 04:28:03;;;;;;;1.73;0.82;;;10.00;99.90;;;;;;5097834;28;20040;-77
2023/04/24 04:30:32;;;;;;;2.22;0.98;;;10.00;99.90;;;;;;5122676;27;20039;-77
2023/04/24 04:32:58;;;;;;;1.17;0.73;;;10.00;99.90;;;;;;5101293;28;20036;-77
2023/04/24 04:35:24;;;;;;;1.05;0.60;;;10.00;99.90;;;;;;5100193;28;20062;-77
2023/04/24 04:37:51;;;;;;;1.45;0.60;;;10.00;99.90;;;;;;5104065;28;20172;-77
2023/04/24 04:40:17;;;;;;;1.13;0.50;;;10.00;99.90;;;;;;5099119;28;20051;-77
2023/04/24 04:42:45;;;;;;;0.50;0.40;;;10.00;99.90;;;;;;5074837;27;20177;-77
2023/04/24 04:45:11;;;;;;;0.52;0.25;;;9.90;99.90;;;;;;5111651;27;20123;-77
2023/04/24 04:47:37;;;;;;;0.20;0.20;;;9.90;99.90;;;;;;5093476;27;20497;-77
2023/04/24 04:50:05;;;;;;;0.38;0.28;;;9.90;99.90;;;;;;5116033;27;20036;-77
2023/04/24 04:52:31;;;;;;;0.93;0.40;;;9.90;99.90;;;;;;5094256;27;20051;-77
2023/04/24 04:54:56;;;;;;;0.82;0.55;;;9.90;99.90;;;;;;5080179;28;20048;-77
2023/04/24 04:57:22;;;;;;;1.88;1.02;;;9.90;99.90;;;;;;5129391;27;20051;-77
2023/04/24 04:59:48;;;;;;;2.33;1.20;;;9.90;99.90;;;;;;5127461;27;20036;-77
2023/04/24 05:02:13;;;;;;;1.45;0.90;;;9.90;99.90;;;;;;5092453;27;20027;-77
2023/04/24 05:04:39;;;;;;;2.28;1.08;;;9.90;99.90;;;;;;5097225;28;20081;-77
2023/04/24 05:07:06;;;;;;;2.15;1.10;;;9.90;99.90;;;;;;5101140;27;20039;-77
2023/04/24 05:09:31;;;;;;;1.27;0.68;;;10.00;99.90;;;;;;5082225;28;20428;-77
2023/04/24 05:11:57;;;;;;;2.03;1.20;;;10.00;99.90;;;;;;5130388;27;20035;-77
2023/04/24 05:14:23;;;;;;;2.17;1.20;;;9.90;99.90;;;;;;5109675;27;20080;-77
2023/04/24 05:16:48;;;;;;;2.53;1.00;;;10.00;99.90;;;;;;5105469;27;20397;-77
2023/04/24 05:19:14;;;;;;;2.15;1.33;;;9.90;99.90;;;;;;5097103;27;20044;-77
2023/04/24 05:21:41;;;;;;;1.38;0.80;;;10.00;99.90;;;;;;5079879;28;20031;-77
2023/04/24 05:24:06;;;;;;;4.20;1.10;;;9.90;99.90;;;;;;5099357;27;20036;-77
2023/04/24 05:26:32;;;;;;;1.98;0.90;;;9.90;99.90;;;;;;5126033;27;20167;-76
2023/04/24 05:28:57;;;;;;;2.22;0.88;;;9.90;99.90;;;;;;5100125;28;20048;-76
2023/04/24 05:31:23;;;;;;;1.75;0.90;;;9.90;99.90;;;;;;5136282;27;20038;-77
2023/04/24 05:33:49;;;;;;;1.65;0.80;;;9.90;99.90;;;;;;5082494;28;20471;-77
2023/04/24 05:36:15;;;;;;;2.17;1.10;;;9.90;99.90;;;;;;5083409;28;20039;-77
2023/04/24 05:38:40;;;;;;;2.08;0.98;;;9.90;99.90;;;;;;5095537;28;20047;-77
2023/04/24 05:41:06;;;;;;;1.70;0.77;;;9.90;99.90;;;;;;5130558;27;20491;-77
2023/04/24 05:43:31;;;;;;;1.92;0.90;;;9.90;99.90;;;;;;5077115;27;20469;-77
2023/04/24 05:45:57;;;;;;;1.73;0.77;;;9.90;99.90;;;;;;5084949;27;20055;-77
2023/04/24 05:48:23;;;;;;;1.73;0.82;;;9.90;99.90;;;;;;5081063;28;20039;-77
2023/04/24 05:50:49;;;;;;;2.10;1.30;;;9.80;99.90;;;;;;5080811;28;20040;-77
2023/04/24 05:53:14;;;;;;;1.38;0.65;;;9.90;99.90;;;;;;5097962;28;20040;-77
2023/04/24 05:55:40;;;;;;;2.10;0.90;;;9.90;99.90;;;;;;5096482;28;20040;-77
2023/04/24 05:58:06;;;;;;;2.10;0.82;;;9.90;99.90;;;;;;5133203;27;20050;-77
2023/04/24 06:00:32;;;;;;;2.28;0.98;;;9.90;99.90;;;;;;5096324;27;20125;-77
2023/04/24 06:02:58;;;;;;;1.85;0.75;;;9.90;99.90;;;;;;5077369;27;20486;-77
2023/04/24 06:05:24;;;;;;;2.03;0.73;;;9.90;99.90;;;;;;5097580;28;20520;-77
2023/04/24 06:07:50;;;;;;;2.08;1.08;;;9.90;99.90;;;;;;5099634;28;20032;-77
2023/04/24 06:10:15;;;;;;;2.00;0.93;;;9.90;99.90;;;;;;5130470;27;20071;-77
2023/04/24 06:12:41;;;;;;;1.92;0.90;;;9.90;99.90;;;;;;5110623;27;20043;-77
2023/04/24 06:15:07;;;;;;;2.55;1.15;;;9.90;99.90;;;;;;5125615;27;20590;-77
2023/04/24 06:17:32;;;;;;;2.88;1.20;;;10.00;99.90;;;;;;5106685;27;20039;-77
2023/04/24 06:19:58;;;;;;;1.52;0.70;;;10.00;99.90;;;;;;5118880;27;20056;-77
2023/04/24 06:22:24;;;;;;;1.20;0.70;;;10.00;99.90;;;;;;5094319;27;20477;-77
2023/04/24 06:24:49;;;;;;;2.13;0.80;;;10.00;99.90;;;;;;5083293;28;20043;-77
2023/04/24 06:27:15;;;;;;;2.03;0.80;;;10.00;99.90;;;;;;5101301;28;20035;-77
2023/04/24 06:29:40;;;;;;;1.50;0.65;;;10.10;99.90;;;;;;5079939;28;20088;-77
2023/04/24 06:32:06;;;;;;;2.53;0.90;;;10.10;99.90;;;;;;5115799;27;20091;-79
2023/04/24 06:34:33;;;;;;;1.63;0.70;;;10.10;99.90;;;;;;5098060;27;20036;-76
2023/04/24 06:36:59;;;;;;;2.67;0.95;;;10.20;99.90;;;;;;5095777;27;20173;-77
2023/04/24 06:39:25;;;;;;;1.98;0.73;;;10.10;99.90;;;;;;5121466;27;20152;-77
2023/04/24 06:41:51;;;;;;;1.90;0.70;;;10.20;99.90;;;;;;5111796;27;20040;-77
2023/04/24 06:44:16;;;;;;;1.13;0.60;;;10.20;99.90;;;;;;5129245;27;20130;-77
2023/04/24 06:46:42;;;;;;;1.48;0.57;;;10.20;99.90;;;;;;5069387;27;20044;-78
2023/04/24 06:49:08;;;;;;;0.93;0.50;;;10.20;99.90;;;;;;5077522;28;20460;-77
2023/04/24 06:51:33;;;;;;;0.73;0.50;;;10.20;99.90;;;;;;5092974;28;20035;-77
2023/04/24 06:53:59;;;;;;;0.47;0.30;;;10.20;99.90;;;;;;5104489;27;20035;-77
2023/04/24 06:56:25;;;;;;;0.68;0.30;;;10.20;99.90;;;;;;5091064;27;20549;-77
2023/04/24 06:58:51;;;;;;;0.85;0.40;;;10.20;99.90;;;;;;5090588;28;20066;-77
2023/04/24 07:01:17;;;;;;;0.82;0.30;;;10.20;99.90;;;;;;5071966;28;20028;-77
2023/04/24 07:03:43;;;;;;;1.23;0.60;;;10.20;99.90;;;;;;5073270;27;20086;-77
2023/04/24 07:06:11;;;;;;;0.73;0.40;;;10.20;99.90;;;;;;5090791;27;20043;-76
2023/04/24 07:08:36;;;;;;;1.33;0.63;;;10.10;99.90;;;;;;5088600;28;20032;-77
2023/04/24 07:11:02;;;;;;;2.47;0.77;;;10.20;99.90;;;;;;5089451;27;20034;-77
2023/04/24 07:13:28;;;;;;;1.70;0.88;;;10.00;99.90;;;;;;5072484;28;20524;-77
2023/04/24 07:15:55;;;;;;;2.10;0.77;;;10.20;99.90;;;;;;5123972;27;20040;-77
2023/04/24 07:18:21;;;;;;;1.48;0.60;;;10.20;99.90;;;;;;5090981;27;20433;-77
2023/04/24 07:20:49;;;;;;;2.05;0.73;;;10.20;99.90;;;;;;5093237;28;20040;-77
2023/04/24 07:23:15;;;;;;;2.00;1.00;;;10.20;99.90;;;;;;5090202;27;20036;-77
2023/04/24 07:25:41;;;;;;;2.25;0.93;;;10.20;99.90;;;;;;5089923;28;20088;-77
2023/04/24 07:28:07;;;;;;;3.50;0.98;;;10.20;99.90;;;;;;5082881;27;20032;-78
2023/04/24 07:30:32;;;;;;;1.88;0.77;;;10.20;99.90;;;;;;5089043;28;20039;-77
2023/04/24 07:32:58;;;;;;;2.20;1.17;;;10.10;99.90;;;;;;5089561;28;20071;-77
2023/04/24 07:35:25;;;;;;;2.05;0.80;;;10.20;99.90;;;;;;5085097;28;20121;-78
2023/04/24 07:37:54;;;;;;;1.88;0.88;;;10.20;99.90;;;;;;5094320;27;21772;-77
2023/04/24 07:40:20;;;;;;;1.45;0.85;;;10.20;99.90;;;;;;5100391;27;20481;-77
2023/04/24 07:42:48;;;;;;;1.88;0.90;;;10.20;99.90;;;;;;5089024;27;20035;-77
2023/04/24 07:45:14;;;;;;;1.60;0.75;;;10.20;99.90;;;;;;5103210;27;20040;-77
2023/04/24 07:47:43;;;;;;;1.45;0.73;;;10.20;99.90;;;;;;5087763;27;20414;-77
2023/04/24 07:50:09;;;;;;;2.47;0.75;;;10.20;99.90;;;;;;5065479;28;20036;-77
2023/04/24 07:52:35;;;;;;;1.77;0.85;;;10.20;99.90;;;;;;5118508;27;20075;-77
2023/04/24 07:55:02;;;;;;;3.05;0.70;;;10.20;99.90;;;;;;5070112;28;20046;-77
2023/04/24 07:57:27;;;;;;;0.85;0.60;;;10.20;99.90;;;;;;5070539;28;20654;-77
2023/04/24 07:59:53;;;;;;;1.48;0.73;;;10.10;99.90;;;;;;5087159;27;20036;-76
2023/04/24 08:02:21;;;;;;;2.25;0.88;;;10.10;99.90;;;;;;5113606;27;20129;-76
2023/04/24 08:04:47;;;;;;;1.35;0.60;;;10.10;99.90;;;;;;5091943;28;20044;-76
2023/04/24 08:07:12;;;;;;;1.48;0.73;;;10.00;99.90;;;;;;5085350;28;21009;-77
2023/04/24 08:09:38;;;;;;;1.48;0.82;;;10.00;99.90;;;;;;5093282;28;20081;-76
2023/04/24 08:12:04;;;;;;;2.17;0.93;;;10.00;99.90;;;;;;5085743;28;20032;-76
2023/04/24 08:14:29;;;;;;;2.38;0.63;;;9.90;99.90;;;;;;5085536;28;20245;-76
2023/04/24 08:16:56;;;;;;;1.05;0.70;;;9.90;99.90;;;;;;5091635;28;20055;-76
2023/04/24 08:19:21;;;;;;;2.40;0.88;;;9.90;99.90;;;;;;5100849;27;20055;-76
2023/04/24 08:21:48;;;;;;;1.13;0.68;;;9.90;99.90;;;;;;5090605;28;20451;-75
2023/04/24 08:24:14;;;;;;;3.03;0.68;;;9.90;99.90;;;;;;5120311;27;20098;-76
2023/04/24 08:26:39;;;;;;;2.17;0.80;;;9.90;99.90;;;;;;5089684;28;20028;-76
2023/04/24 08:29:06;;;;;;;1.45;0.80;;;9.90;99.90;;;;;;5073672;28;20397;-78
2023/04/24 08:31:32;;;;;;;1.80;0.90;;;9.90;99.90;;;;;;5089219;28;20104;-76
2023/04/24 08:33:58;;;;;;;3.10;1.30;;;9.80;99.90;;;;;;5091555;28;20031;-76
2023/04/24 08:36:24;;;;;;;2.17;1.30;;;9.80;99.90;;;;;;5084794;28;20500;-76
2023/04/24 08:38:50;;;;;;;5.45;1.80;;;9.80;99.90;;;;;;5103239;28;20038;-76
2023/04/24 08:41:17;;;;;;;5.75;2.22;;;9.70;99.90;;;;;;5069722;28;20137;-76
2023/04/24 08:43:46;;;;;;;7.38;2.67;;;9.70;99.90;;;;;;5073739;28;20432;-76
2023/04/24 08:46:13;;;;;;;5.55;2.47;;;9.60;99.90;;;;;;5066852;28;20032;-76
2023/04/24 08:48:39;;;;;;;8.63;2.85;;;9.60;99.90;;;;;;5087290;28;20138;-75
2023/04/24 08:51:07;;;;;;;7.30;2.70;;;9.60;99.90;;;;;;5066037;28;20073;-76
2023/04/24 08:53:34;;;;;;;7.63;3.00;;;9.60;99.90;;;;;;5076018;28;20127;-76
2023/04/24 08:56:01;;;;;;;7.10;2.67;;;9.50;99.90;;;;;;5088804;28;20516;-75
2023/04/24 08:58:28;;;;;;;9.48;2.60;;;9.50;99.90;;;;;;5093512;28;20361;-75
2023/04/24 09:00:57;;;;;;;7.55;3.42;;;9.40;99.90;;;;;;5086009;28;20079;-75
2023/04/24 09:03:23;;;;;;;9.43;2.78;;;9.50;99.90;;;;;;5099353;27;20059;-75
2023/04/24 09:05:50;;;;;;;7.30;3.03;;;9.40;99.90;;;;;;5119556;27;20446;-75
2023/04/24 09:08:19;;;;;;;7.95;3.47;;;9.40;99.90;;;;;;5069068;28;20134;-76
2023/04/24 09:10:45;;;;;;;7.00;2.80;;;9.40;99.90;;;;;;5088264;28;20051;-73
2023/04/24 09:13:11;;;;;;;7.45;3.10;;;9.40;99.90;;;;;;5087677;28;20044;-74
2023/04/24 09:15:40;;;;;;;10.50;3.30;;;9.40;99.90;;;;;;5072815;28;20067;-73
2023/04/24 09:18:06;;;;;;;8.27;3.97;;;9.40;99.90;;;;;;5088602;28;21354;-77
2023/04/24 09:20:32;;;;;;;5.70;3.17;;;9.30;99.90;;;;;;5063246;28;20734;-77
2023/04/24 09:22:58;;;;;;;9.45;3.60;;;9.30;99.90;;;;;;5088635;27;20040;-77
2023/04/24 09:25:35;;;;;;;7.95;4.07;;;9.20;99.90;;;;;;5092388;27;20027;-77
2023/04/24 09:28:06;;;;;;;7.57;3.33;;;9.20;99.90;;;;;;5087183;27;20127;-76
2023/04/24 09:30:32;;;;;;;10.18;3.70;;;9.20;99.90;;;;;;5091469;27;20048;-77
2023/04/24 09:33:14;;;;;;;10.00;4.70;;;9.20;99.90;;;;;;5093697;27;20040;-76
2023/04/24 09:35:51;;;;;;;11.63;4.38;;;9.20;99.90;;;;;;5076828;27;20074;-76
2023/04/24 09:38:17;;;;;;;10.35;4.28;;;9.20;99.90;;;;;;5068816;27;20040;-76
2023/04/24 09:40:44;;;;;;;10.80;4.25;;;9.20;99.90;;;;;;5092072;27;20489;-76
2023/04/24 09:43:12;;;;;;;11.70;4.30;;;9.10;99.90;;;;;;5119504;27;20405;-76
2023/04/24 09:45:39;;;;;;;12.05;3.85;;;9.10;99.90;;;;;;5093223;27;20421;-76
2023/04/24 09:48:08;;;;;;;6.70;3.47;;;9.20;99.90;;;;;;5094264;27;20488;-76
2023/04/24 09:50:34;;;;;;;10.32;3.75;;;9.20;99.90;;;;;;5106401;27;20043;-76
2023/04/24 09:53:05;;;;;;;7.88;3.38;;;9.20;99.90;;;;;;5068220;27;20043;-76
2023/04/24 09:55:31;;;;;;;7.20;3.42;;;9.20;99.90;;;;;;5084757;27;20082;-79
2023/04/24 09:58:00;;;;;;;9.80;3.33;;;9.20;99.90;;;;;;5085479;27;20489;-79
2023/04/24 10:00:32;;;;;;;7.25;3.17;;;9.20;99.90;;;;;;5068739;28;20630;-80
2023/04/24 10:03:03;;;;;;;5.78;2.88;;;9.20;99.90;;;;;;5106576;27;20066;-79
2023/04/24 10:05:28;;;;;;;6.03;2.95;;;9.20;99.90;;;;;;5091772;27;20074;-79
2023/04/24 10:08:00;;;;;;;6.32;3.30;;;9.10;99.90;;;;;;5117767;27;20456;-78
2023/04/24 10:10:26;;;;;;;6.53;3.22;;;9.10;99.90;;;;;;5102781;27;20047;-78
2023/04/24 10:12:52;;;;;;;4.75;2.45;;;9.20;99.90;;;;;;5091817;27;20052;-78
2023/04/24 10:15:21;;;;;;;5.95;2.58;;;9.10;99.90;;;;;;5092228;27;20080;-78
2023/04/24 10:17:53;;;;;;;5.63;2.05;;;9.10;99.90;;;;;;5073543;27;20031;-78
2023/04/24 10:20:24;;;;;;;4.03;1.70;;;9.10;99.90;;;;;;5103843;27;20093;-78
2023/04/24 10:22:52;;;;;;;4.45;2.35;;;9.10;99.90;;;;;;5116911;27;20059;-78
2023/04/24 10:25:26;;;;;;;5.55;2.10;;;9.10;99.90;;;;;;5093353;27;20034;-78
2023/04/24 10:27:53;;;;;;;4.07;1.90;;;9.20;99.90;;;;;;5095171;28;20044;-78
2023/04/24 10:30:19;;;;;;;6.38;2.00;;;9.20;99.90;;;;;;5091286;27;20063;-79
2023/04/24 10:32:45;;;;;;;3.45;1.40;;;9.20;99.90;;;;;;5073758;27;20513;-78
2023/04/24 10:35:15;;;;;;;5.03;1.88;;;9.30;99.90;;;;;;5089135;27;20035;-78
2023/04/24 10:37:48;;;;;;;4.47;2.13;;;9.30;99.90;;;;;;5099932;27;20048;-79
2023/04/24 10:40:18;;;;;;;2.88;1.35;;;9.30;99.90;;;;;;5091932;27;20505;-78
2023/04/24 10:42:47;;;;;;;6.13;1.48;;;9.30;99.90;;;;;;5092207;27;20479;-79
2023/04/24 10:45:18;;;;;;;4.80;1.75;;;9.40;99.90;;;;;;5080446;27;20020;-79
2023/04/24 10:47:58;;;;;;;5.55;1.60;;;9.30;99.90;;;;;;5090767;27;20047;-78
2023/04/24 10:50:26;;;;;;;3.60;1.60;;;9.30;99.90;;;;;;5088290;27;20036;-78
2023/04/24 10:52:55;;;;;;;3.70;1.25;;;9.30;99.90;;;;;;5069960;27;20386;-78
2023/04/24 10:55:49;;;;;;;4.43;1.50;;;9.30;99.90;;;;;;5088195;27;20047;-79
2023/04/24 10:58:16;;;;;;;7.18;1.70;;;9.30;99.90;;;;;;5087903;27;20699;-78
2023/04/24 11:00:43;;;;;;;3.72;1.40;;;9.30;99.90;;;;;;5087541;27;20047;-79
2023/04/24 11:03:29;;;;;;;4.18;1.15;;;9.30;99.90;;;;;;5091007;27;20072;-79
2023/04/24 11:06:02;;;;;;;4.23;1.50;;;9.30;99.90;;;;;;5109191;27;20505;-85
2023/04/24 11:08:29;;;;;;;7.60;1.65;;;9.30;99.90;;;;;;5091593;27;20356;-78
2023/04/24 11:10:58;;;;;;;5.53;1.42;;;9.40;99.90;;;;;;5084934;27;20044;-79
2023/04/24 11:13:25;;;;;;;3.78;1.05;;;9.30;99.90;;;;;;5092077;27;20044;-79
2023/04/24 11:16:37;;;;;;;5.07;1.38;;;9.40;99.90;;;;;;5095083;28;20048;-79
2023/04/24 11:19:09;;;;;;;1.75;0.95;;;9.50;99.90;;;;;;5076945;28;20071;-80
2023/04/24 11:21:41;;;;;;;3.25;1.10;;;9.60;99.90;;;;;;5103201;27;20366;-80
2023/04/24 11:24:28;;;;;;;3.42;1.10;;;9.80;99.90;;;;;;5103490;27;20027;-80
2023/04/24 11:27:06;;;;;;;2.88;1.02;;;9.80;99.90;;;;;;5090936;27;20111;-80
2023/04/24 11:29:39;;;;;;;3.92;0.90;;;9.80;99.90;;;;;;5079727;28;20035;-79
2023/04/24 11:32:30;;;;;;;2.08;0.77;;;9.80;99.90;;;;;;5095435;28;20027;-79
2023/04/24 11:35:28;;;;;;;5.93;1.20;;;9.80;99.90;;;;;;5073098;28;20500;-79
2023/04/24 11:37:54;;;;;;;3.33;1.30;;;9.70;99.90;;;;;;5078231;28;20043;-79
2023/04/24 11:40:22;;;;;;;3.45;0.90;;;9.70;99.90;;;;;;5123587;27;20044;-79
2023/04/24 11:42:52;;;;;;;1.98;0.80;;;9.70;99.90;;;;;;5081477;27;20032;-79
2023/04/24 11:45:26;;;;;;;2.00;0.80;;;9.60;99.90;;;;;;5075244;27;20032;-80
2023/04/24 11:47:52;;;;;;;2.13;1.00;;;9.60;99.90;;;;;;5095562;27;20085;-79
2023/04/24 11:50:22;;;;;;;2.60;0.95;;;9.60;99.90;;;;;;5082954;28;20803;-79
2023/04/24 11:52:50;;;;;;;3.58;0.77;;;9.70;99.90;;;;;;5078803;28;20043;-79
2023/04/24 11:55:15;;;;;;;2.55;1.17;;;9.70;99.90;;;;;;5091352;27;20470;-79
2023/04/24 11:57:50;;;;;;;5.85;1.00;;;9.70;99.90;;;;;;5097098;27;20176;-79
2023/04/24 12:00:21;;;;;;;3.13;0.75;;;9.70;99.90;;;;;;5073666;28;20429;-80
2023/04/24 12:02:47;;;;;;;1.27;0.70;;;9.70;99.90;;;;;;5079356;27;20027;-79
2023/04/24 12:05:23;;;;;;;3.85;0.82;;;9.70;99.90;;;;;;5078204;27;20122;-79
2023/04/24 12:07:49;;;;;;;1.75;0.57;;;9.70;99.90;;;;;;5077843;28;20040;-79
2023/04/24 12:10:20;;;;;;;2.83;0.70;;;9.70;99.90;;;;;;5078457;28;20032;-80
2023/04/24 12:12:46;;;;;;;3.35;0.70;;;9.60;99.90;;;;;;5080581;28;20036;-80
2023/04/24 12:15:12;;;;;;;2.50;0.60;;;9.50;99.90;;;;;;5076093;28;20122;-80
2023/04/24 12:17:41;;;;;;;1.45;0.63;;;9.50;99.90;;;;;;5126754;27;20041;-79
2023/04/24 12:20:08;;;;;;;3.85;0.80;;;9.50;99.90;;;;;;5075857;28;20781;-79
2023/04/24 12:22:54;;;;;;;2.47;0.70;;;9.50;99.90;;;;;;5076656;28;20067;-80
2023/04/24 12:25:22;;;;;;;1.20;0.60;;;9.50;99.90;;;;;;5122878;27;20600;-80
2023/04/24 12:27:53;;;;;;;2.45;0.90;;;9.50;99.90;;;;;;5090184;28;20456;-79
2023/04/24 12:30:19;;;;;;;1.77;0.65;;;9.50;99.90;;;;;;5094130;27;20035;-79
2023/04/24 12:32:49;;;;;;;4.35;1.15;;;9.50;99.90;;;;;;5129917;27;20099;-79
2023/04/24 12:35:23;;;;;;;2.35;0.70;;;9.50;99.90;;;;;;5098735;28;20046;-79
2023/04/24 12:37:49;;;;;;;2.33;0.82;;;9.60;99.90;;;;;;5120398;27;20036;-79
2023/04/24 12:40:16;;;;;;;3.67;0.75;;;9.60;99.90;;;;;;5108857;27;20599;-80
2023/04/24 12:42:48;;;;;;;3.42;0.70;;;9.60;99.90;;;;;;5092172;28;20040;-80
2023/04/24 12:45:15;;;;;;;1.77;0.70;;;9.70;99.90;;;;;;5087549;28;20519;-80
2023/04/24 12:47:42;;;;;;;1.20;0.70;;;9.70;99.90;;;;;;5107070;27;20028;-80
2023/04/24 12:50:09;;;;;;;1.80;0.47;;;9.70;99.90;;;;;;5103853;28;20467;-80